createdAt,value
2017-11-13T00:00:16.508Z,46.70
2017-11-13T00:02:45.395Z,48.50
2017-11-13T00:05:14.538Z,48.30
2017-11-13T00:07:43.555Z,49.40
2017-11-13T00:10:12.327Z,49.40
2017-11-13T00:12:42.807Z,49.60
2017-11-13T00:15:12.189Z,49.00
2017-11-13T00:17:41.072Z,49.20
2017-11-13T00:20:10.873Z,50.60
2017-11-13T00:22:39.873Z,50.60
2017-11-13T00:25:09.432Z,50.00
2017-11-13T00:27:39.001Z,50.00
2017-11-13T00:30:08.102Z,49.80
2017-11-13T00:32:37.144Z,49.40
2017-11-13T00:35:06.011Z,47.60
2017-11-13T00:37:34.889Z,48.10
2017-11-13T00:40:04.050Z,47.20
2017-11-13T00:42:32.937Z,49.10
2017-11-13T00:45:02.734Z,46.30
2017-11-13T00:47:31.442Z,46.40
2017-11-13T00:50:00.952Z,46.40
2017-11-13T00:52:29.919Z,46.40
2017-11-13T00:54:59.705Z,46.80
2017-11-13T00:57:28.592Z,46.80
2017-11-13T00:59:57.692Z,45.20
2017-11-13T01:02:26.528Z,45.80
2017-11-13T01:04:56.642Z,48.00
2017-11-13T01:07:25.780Z,48.00
2017-11-13T01:09:54.511Z,47.20
2017-11-13T01:12:23.454Z,46.00
2017-11-13T01:14:52.635Z,45.50
2017-11-13T01:17:22.860Z,45.30
2017-11-13T01:19:52.925Z,47.20
2017-11-13T01:22:22.765Z,47.00
2017-11-13T01:24:52.674Z,46.80
2017-11-13T01:27:21.710Z,46.50
2017-11-13T01:29:50.688Z,46.90
2017-11-13T01:32:19.661Z,44.70
2017-11-13T01:34:48.527Z,47.10
2017-11-13T01:37:18.228Z,46.40
2017-11-13T01:39:47.239Z,45.90
2017-11-13T01:42:16.915Z,46.80
2017-11-13T01:44:45.749Z,46.90
2017-11-13T01:47:15.408Z,46.00
2017-11-13T01:49:44.351Z,45.90
2017-11-13T01:52:13.204Z,45.90
2017-11-13T01:54:42.166Z,47.50
2017-11-13T01:57:11.057Z,47.20
2017-11-13T01:59:39.837Z,47.50
2017-11-13T02:02:08.540Z,46.70
2017-11-13T02:04:37.311Z,47.00
2017-11-13T02:07:06.188Z,47.00
2017-11-13T02:09:35.111Z,47.70
2017-11-13T02:12:04.714Z,46.90
2017-11-13T02:14:33.463Z,47.00
2017-11-13T02:17:02.280Z,46.10
2017-11-13T02:19:31.166Z,48.60
2017-11-13T02:21:59.908Z,46.80
2017-11-13T02:24:29.631Z,47.20
2017-11-13T02:26:59.285Z,45.70
2017-11-13T02:29:28.312Z,45.70
2017-11-13T02:31:57.196Z,47.10
2017-11-13T02:34:26.058Z,45.70
2017-11-13T02:36:55.801Z,45.50
2017-11-13T02:39:24.758Z,45.50
2017-11-13T02:41:53.813Z,46.30
2017-11-13T02:44:23.238Z,45.30
2017-11-13T02:46:54.804Z,44.60
2017-11-13T02:49:24.390Z,45.20
2017-11-13T02:51:53.588Z,45.20
2017-11-13T02:54:24.156Z,46.20
2017-11-13T02:56:53.888Z,45.30
2017-11-13T02:59:24.108Z,46.30
2017-11-13T03:01:53.990Z,44.60
2017-11-13T03:04:24.128Z,44.60
2017-11-13T03:06:54.991Z,44.80
2017-11-13T03:09:23.819Z,44.80
2017-11-13T03:11:53.021Z,44.80
2017-11-13T03:14:22.646Z,46.00
2017-11-13T03:16:51.866Z,46.00
2017-11-13T03:19:20.980Z,45.80
2017-11-13T03:21:49.841Z,43.70
2017-11-13T03:24:18.594Z,44.10
2017-11-13T03:26:48.149Z,44.50
2017-11-13T03:29:17.731Z,44.60
2017-11-13T03:31:46.420Z,44.40
2017-11-13T03:34:16.370Z,43.80
2017-11-13T03:36:45.467Z,42.70
2017-11-13T03:39:15.037Z,41.70
2017-11-13T03:41:44.874Z,42.40
2017-11-13T03:44:14.165Z,43.00
2017-11-13T03:46:43.178Z,42.80
2017-11-13T03:49:12.617Z,42.50
2017-11-13T03:51:41.546Z,42.40
2017-11-13T03:54:10.665Z,42.80
2017-11-13T03:56:39.424Z,43.00
2017-11-13T03:59:08.165Z,43.60
2017-11-13T04:01:37.047Z,41.90
2017-11-13T04:04:06.215Z,42.30
2017-11-13T04:06:35.558Z,43.20
2017-11-13T04:09:06.940Z,42.50
2017-11-13T04:11:35.977Z,42.20
2017-11-13T04:14:05.533Z,42.10
2017-11-13T04:16:35.453Z,42.10
2017-11-13T04:19:04.400Z,41.60
2017-11-13T04:21:33.232Z,41.60
2017-11-13T04:24:01.997Z,41.40
2017-11-13T04:26:31.677Z,42.30
2017-11-13T04:29:00.491Z,42.30
2017-11-13T04:31:29.408Z,42.60
2017-11-13T04:33:58.162Z,42.20
2017-11-13T04:36:27.090Z,41.70
2017-11-13T04:38:55.993Z,41.20
2017-11-13T04:41:26.542Z,41.70
2017-11-13T04:43:56.005Z,41.70
2017-11-13T04:46:26.055Z,41.80
2017-11-13T04:48:55.845Z,41.70
2017-11-13T04:51:26.203Z,42.60
2017-11-13T04:53:56.995Z,41.00
2017-11-13T04:56:27.361Z,41.00
2017-11-13T04:59:01.526Z,41.00
2017-11-13T05:01:31.078Z,41.70
2017-11-13T05:04:01.336Z,41.40
2017-11-13T05:06:30.976Z,41.30
2017-11-13T05:08:59.852Z,42.10
2017-11-13T05:11:28.989Z,42.50
2017-11-13T05:13:58.204Z,43.00
2017-11-13T05:16:27.071Z,42.00
2017-11-13T05:18:56.339Z,42.10
2017-11-13T05:21:26.439Z,41.30
2017-11-13T05:23:56.770Z,42.90
2017-11-13T05:26:26.385Z,43.50
2017-11-13T05:28:56.590Z,43.80
2017-11-13T05:31:26.364Z,43.40
2017-11-13T05:33:55.192Z,44.30
2017-11-13T05:36:24.181Z,43.00
2017-11-13T05:38:53.514Z,42.70
2017-11-13T05:41:23.175Z,42.80
2017-11-13T05:43:52.204Z,42.70
2017-11-13T05:46:21.693Z,42.40
2017-11-13T05:48:50.628Z,42.00
2017-11-13T05:51:20.976Z,42.50
2017-11-13T05:53:51.285Z,42.50
2017-11-13T05:56:20.275Z,42.40
2017-11-13T05:58:49.815Z,43.80
2017-11-13T06:01:19.545Z,43.90
2017-11-13T06:03:49.750Z,42.90
2017-11-13T06:06:18.827Z,42.90
2017-11-13T06:08:47.939Z,42.00
2017-11-13T06:11:17.269Z,43.00
2017-11-13T06:13:47.727Z,42.70
2017-11-13T06:16:16.692Z,42.70
2017-11-13T06:18:46.644Z,42.20
2017-11-13T06:21:16.198Z,41.80
2017-11-13T06:23:45.488Z,42.10
2017-11-13T06:26:15.163Z,41.50
2017-11-13T06:28:44.086Z,41.50
2017-11-13T06:31:13.971Z,42.10
2017-11-13T06:33:42.850Z,42.00
2017-11-13T06:36:12.226Z,40.60
2017-11-13T06:38:41.821Z,40.10
2017-11-13T06:41:11.628Z,41.20
2017-11-13T06:43:42.053Z,41.90
2017-11-13T06:46:11.081Z,40.70
2017-11-13T06:48:39.986Z,40.80
2017-11-13T06:51:09.652Z,42.60
2017-11-13T06:53:38.812Z,42.60
2017-11-13T06:56:08.678Z,42.90
2017-11-13T06:58:38.575Z,41.90
2017-11-13T07:01:08.068Z,41.90
2017-11-13T07:03:36.875Z,42.30
2017-11-13T07:06:05.929Z,43.50
2017-11-13T07:08:35.061Z,43.50
2017-11-13T07:11:03.834Z,42.60
2017-11-13T07:13:33.229Z,42.60
2017-11-13T07:16:02.963Z,42.40
2017-11-13T07:18:32.190Z,42.30
2017-11-13T07:21:01.833Z,41.10
2017-11-13T07:23:31.055Z,41.30
2017-11-13T07:26:00.250Z,42.20
2017-11-13T07:28:29.615Z,42.50
2017-11-13T07:30:59.630Z,41.70
2017-11-13T07:33:30.817Z,44.40
2017-11-13T07:36:00.425Z,44.40
2017-11-13T07:38:29.912Z,44.40
2017-11-13T07:41:00.471Z,44.10
2017-11-13T07:43:30.216Z,42.00
2017-11-13T07:46:01.435Z,43.20
2017-11-13T07:48:31.756Z,43.00
2017-11-13T07:51:02.511Z,39.70
2017-11-13T07:53:31.809Z,39.50
2017-11-13T07:56:00.666Z,39.70
2017-11-13T07:58:31.767Z,38.20
2017-11-13T08:01:01.003Z,39.90
2017-11-13T08:03:31.514Z,39.80
2017-11-13T08:06:01.099Z,40.20
2017-11-13T08:08:31.125Z,38.50
2017-11-13T08:11:01.263Z,37.30
2017-11-13T08:13:31.194Z,38.50
2017-11-13T08:16:01.087Z,37.20
2017-11-13T08:18:31.241Z,38.60
2017-11-13T08:21:01.288Z,40.60
2017-11-13T08:23:32.213Z,37.50
2017-11-13T08:26:01.378Z,37.60
2017-11-13T08:28:31.748Z,37.00
2017-11-13T08:31:01.968Z,37.90
2017-11-13T08:33:31.811Z,38.70
2017-11-13T08:36:02.016Z,39.40
2017-11-13T08:38:32.041Z,41.20
2017-11-13T08:41:03.312Z,39.80
2017-11-13T08:43:32.507Z,38.40
2017-11-13T08:46:02.218Z,38.80
2017-11-13T08:48:32.376Z,37.40
2017-11-13T08:51:02.686Z,37.80
2017-11-13T08:53:32.178Z,37.60
2017-11-13T08:56:01.996Z,37.80
2017-11-13T08:58:32.072Z,37.70
2017-11-13T09:01:02.945Z,36.50
2017-11-13T09:03:32.061Z,36.40
2017-11-13T09:06:02.238Z,37.20
2017-11-13T09:08:33.311Z,36.00
2017-11-13T09:11:02.379Z,35.90
2017-11-13T09:13:33.099Z,36.30
2017-11-13T09:16:02.554Z,36.30
2017-11-13T09:18:32.820Z,35.80
2017-11-13T09:21:02.711Z,36.30
2017-11-13T09:23:32.487Z,35.10
2017-11-13T09:26:02.420Z,34.70
2017-11-13T09:28:32.353Z,35.70
2017-11-13T09:31:02.366Z,35.80
2017-11-13T09:33:32.732Z,36.30
2017-11-13T09:36:02.422Z,34.70
2017-11-13T09:38:33.640Z,36.20
2017-11-13T09:41:03.394Z,36.10
2017-11-13T09:43:32.473Z,35.50
2017-11-13T09:46:03.282Z,36.40
2017-11-13T09:48:33.117Z,36.40
2017-11-13T09:51:02.572Z,36.20
2017-11-13T09:53:32.920Z,34.90
2017-11-13T09:56:02.718Z,34.40
2017-11-13T09:58:33.379Z,37.40
2017-11-13T10:01:02.993Z,35.50
2017-11-13T10:03:33.217Z,36.20
2017-11-13T10:06:03.135Z,36.40
2017-11-13T10:08:32.823Z,34.10
2017-11-13T10:11:02.923Z,33.30
2017-11-13T10:13:33.992Z,34.40
2017-11-13T10:16:03.583Z,34.40
2017-11-13T10:18:33.865Z,35.20
2017-11-13T10:21:03.381Z,34.60
2017-11-13T10:23:34.395Z,35.30
2017-11-13T10:26:03.520Z,35.30
2017-11-13T10:28:33.472Z,35.60
2017-11-13T10:31:04.299Z,34.80
2017-11-13T10:33:33.769Z,34.70
2017-11-13T10:36:03.851Z,35.40
2017-11-13T10:38:33.966Z,34.50
2017-11-13T10:41:04.449Z,34.80
2017-11-13T10:43:33.971Z,34.70
2017-11-13T10:46:04.831Z,35.80
2017-11-13T10:48:34.505Z,35.80
2017-11-13T10:51:04.268Z,36.50
2017-11-13T10:53:34.840Z,35.70
2017-11-13T10:56:05.408Z,35.90
2017-11-13T10:58:34.496Z,35.90
2017-11-13T11:01:04.599Z,34.40
2017-11-13T11:03:34.753Z,33.60
2017-11-13T11:06:04.743Z,33.60
2017-11-13T11:08:35.199Z,33.10
2017-11-13T11:11:04.678Z,33.90
2017-11-13T11:13:35.764Z,33.70
2017-11-13T11:30:03.232Z,34.50
2017-11-13T11:32:42.583Z,35.00
2017-11-13T11:35:15.546Z,35.80
2017-11-13T11:38:03.148Z,35.40
2017-11-13T11:40:33.851Z,34.50
2017-11-13T11:43:03.213Z,35.50
2017-11-13T11:45:35.093Z,34.80
2017-11-13T11:48:04.332Z,34.70
2017-11-13T11:50:33.492Z,35.50
2017-11-13T11:53:02.437Z,35.10
2017-11-13T11:55:36.335Z,34.80
2017-11-13T11:58:06.118Z,34.20
2017-11-13T12:00:36.464Z,33.30
2017-11-13T12:03:05.877Z,34.50
2017-11-13T12:05:35.444Z,33.40
2017-11-13T12:08:05.043Z,33.90
2017-11-13T12:10:34.743Z,34.40
2017-11-13T12:13:04.107Z,34.10
2017-11-13T12:15:33.878Z,35.50
2017-11-13T12:18:03.919Z,35.00
2017-11-13T12:20:33.125Z,34.90
2017-11-13T12:23:02.267Z,35.40
2017-11-13T12:25:31.497Z,34.30
2017-11-13T12:28:00.453Z,34.40
2017-11-13T12:30:30.189Z,34.20
2017-11-13T12:32:59.160Z,34.40
2017-11-13T12:35:28.081Z,35.20
2017-11-13T12:37:57.032Z,35.10
2017-11-13T12:40:26.158Z,34.20
2017-11-13T12:42:55.431Z,33.80
2017-11-13T12:45:24.652Z,33.60
2017-11-13T12:47:54.708Z,34.20
2017-11-13T12:50:24.455Z,35.00
2017-11-13T12:52:53.827Z,35.00
2017-11-13T12:55:23.460Z,33.70
2017-11-13T12:57:52.300Z,33.70
2017-11-13T13:00:22.285Z,33.20
2017-11-13T13:02:51.575Z,33.20
2017-11-13T13:05:21.052Z,32.90
2017-11-13T13:07:50.189Z,34.10
2017-11-13T13:10:19.582Z,33.00
2017-11-13T13:12:50.097Z,33.50
2017-11-13T13:15:19.721Z,33.40
2017-11-13T13:17:50.920Z,34.90
2017-11-13T13:20:20.549Z,34.80
2017-11-13T13:22:50.042Z,32.80
2017-11-13T13:25:19.690Z,32.90
2017-11-13T13:27:48.795Z,33.40
2017-11-13T13:30:17.700Z,33.00
2017-11-13T13:32:47.887Z,33.00
2017-11-13T13:35:17.426Z,33.00
2017-11-13T13:37:46.442Z,33.50
2017-11-13T13:40:16.022Z,33.00
2017-11-13T13:42:44.966Z,33.10
2017-11-13T13:45:13.849Z,32.60
2017-11-13T13:47:44.041Z,33.00
2017-11-13T13:50:13.391Z,33.00
2017-11-13T13:52:43.322Z,32.70
2017-11-13T13:55:13.137Z,32.70
2017-11-13T13:57:42.975Z,33.70
2017-11-13T14:00:12.632Z,34.20
2017-11-13T14:02:42.236Z,32.90
2017-11-13T14:05:11.478Z,32.00
2017-11-13T14:07:40.769Z,31.70
2017-11-13T14:10:11.357Z,32.30
2017-11-13T14:12:41.124Z,32.60
2017-11-13T14:15:11.020Z,33.10
2017-11-13T14:17:40.779Z,34.10
2017-11-13T14:20:09.906Z,33.20
2017-11-13T14:22:40.334Z,32.30
2017-11-13T14:25:09.956Z,33.50
2017-11-13T14:27:39.210Z,33.90
2017-11-13T14:30:08.665Z,33.50
2017-11-13T14:32:39.119Z,33.80
2017-11-13T14:35:08.187Z,33.90
2017-11-13T14:37:37.127Z,33.70
2017-11-13T14:40:05.917Z,33.80
2017-11-13T14:42:35.759Z,33.40
2017-11-13T14:45:05.540Z,34.30
2017-11-13T14:47:34.925Z,34.20
2017-11-13T14:50:04.237Z,33.70
2017-11-13T14:52:34.884Z,33.40
2017-11-13T14:55:03.927Z,34.20
2017-11-13T14:57:32.668Z,34.50
2017-11-13T15:00:01.566Z,33.80
2017-11-13T15:02:30.606Z,33.70
2017-11-13T15:05:00.454Z,34.90
2017-11-13T15:07:29.481Z,34.30
2017-11-13T15:09:59.115Z,35.30
2017-11-13T15:12:27.997Z,35.30
2017-11-13T15:15:00.871Z,33.60
2017-11-13T15:17:30.421Z,34.10
2017-11-13T15:20:01.051Z,34.70
2017-11-13T15:22:30.551Z,34.00
2017-11-13T15:24:59.419Z,34.10
2017-11-13T15:27:30.097Z,35.20
2017-11-13T15:29:58.894Z,35.20
2017-11-13T15:32:28.305Z,34.30
2017-11-13T15:34:57.828Z,34.30
2017-11-13T15:37:27.300Z,34.10
2017-11-13T15:39:56.223Z,34.00
2017-11-13T15:42:25.399Z,34.50
2017-11-13T15:44:54.371Z,33.90
2017-11-13T15:47:23.291Z,34.10
2017-11-13T15:49:54.469Z,34.70
2017-11-13T15:52:24.134Z,34.70
2017-11-13T15:54:55.277Z,35.30
2017-11-13T15:57:25.599Z,34.10
2017-11-13T15:59:57.062Z,34.70
2017-11-13T16:02:28.463Z,35.40
2017-11-13T16:05:03.901Z,35.30
2017-11-13T16:07:35.554Z,34.10
2017-11-13T16:10:07.018Z,35.90
2017-11-13T16:12:41.007Z,35.20
2017-11-13T16:15:10.134Z,34.40
2017-11-13T16:17:39.522Z,34.40
2017-11-13T16:20:08.401Z,35.10
2017-11-13T16:22:37.462Z,34.10
2017-11-13T16:25:06.315Z,34.90
2017-11-13T16:27:35.918Z,34.60
2017-11-13T16:30:04.883Z,34.60
2017-11-13T16:32:33.632Z,35.20
2017-11-13T16:35:03.752Z,34.70
2017-11-13T16:37:32.665Z,34.70
2017-11-13T16:40:02.294Z,32.60
2017-11-13T16:42:31.148Z,32.60
2017-11-13T16:45:00.802Z,32.90
2017-11-13T16:47:29.620Z,32.80
2017-11-13T16:49:58.505Z,32.80
2017-11-13T16:52:27.421Z,33.70
2017-11-13T16:55:01.421Z,34.00
2017-11-13T16:57:30.372Z,34.10
2017-11-13T16:59:59.504Z,34.20
2017-11-13T17:02:28.444Z,33.80
2017-11-13T17:05:02.040Z,33.20
2017-11-13T17:07:30.729Z,33.70
2017-11-13T17:09:59.824Z,33.10
2017-11-13T17:12:30.072Z,33.90
2017-11-13T17:15:00.101Z,34.50
2017-11-13T17:17:29.294Z,34.50
2017-11-13T17:19:58.323Z,35.00
2017-11-13T17:22:27.822Z,34.20
2017-11-13T17:24:57.031Z,34.10
2017-11-13T17:27:26.786Z,32.80
2017-11-13T17:29:56.945Z,34.50
2017-11-13T17:32:26.511Z,34.50
2017-11-13T17:34:55.345Z,34.60
2017-11-13T17:37:24.473Z,33.90
2017-11-13T17:39:53.371Z,34.50
2017-11-13T17:42:23.127Z,35.00
2017-11-13T17:44:53.316Z,34.30
2017-11-13T17:47:22.373Z,34.50
2017-11-13T17:49:52.795Z,33.80
2017-11-13T17:52:22.223Z,33.50
2017-11-13T17:54:54.075Z,34.40
2017-11-13T17:57:23.774Z,34.30
2017-11-13T17:59:53.404Z,34.40
2017-11-13T18:02:22.235Z,34.40
2017-11-13T18:04:51.580Z,34.60
2017-11-13T18:07:20.575Z,34.10
2017-11-13T18:09:49.458Z,34.10
2017-11-13T18:12:18.655Z,34.30
2017-11-13T18:14:48.294Z,33.80
2017-11-13T18:17:17.818Z,34.10
2017-11-13T18:19:46.670Z,34.00
2017-11-13T18:22:15.653Z,34.20
2017-11-13T18:24:49.247Z,34.00
2017-11-13T18:27:18.534Z,34.00
2017-11-13T18:29:47.582Z,34.80
2017-11-13T18:32:16.417Z,34.50
2017-11-13T18:34:46.419Z,34.60
2017-11-13T18:37:15.216Z,32.70
2017-11-13T18:39:44.299Z,33.20
2017-11-13T18:42:13.254Z,33.70
2017-11-13T18:44:43.037Z,33.10
2017-11-13T18:47:11.868Z,34.00
2017-11-13T18:49:40.797Z,35.20
2017-11-13T18:52:09.719Z,33.70
2017-11-13T18:54:38.572Z,34.50
2017-11-13T18:57:08.208Z,34.60
2017-11-13T18:59:37.798Z,32.90
2017-11-13T19:02:06.551Z,32.90
2017-11-13T19:04:35.547Z,33.60
2017-11-13T19:07:04.369Z,33.10
2017-11-13T19:09:33.291Z,33.70
2017-11-13T19:12:02.220Z,33.40
2017-11-13T19:14:30.925Z,33.70
2017-11-13T19:16:59.798Z,32.30
2017-11-13T19:19:28.910Z,32.40
2017-11-13T19:21:58.029Z,33.00
2017-11-13T19:24:26.929Z,33.60
2017-11-13T19:26:56.432Z,32.30
2017-11-13T19:29:25.254Z,32.30
2017-11-13T19:31:54.762Z,32.60
2017-11-13T19:34:23.603Z,32.50
2017-11-13T19:36:52.315Z,33.40
2017-11-13T19:39:21.197Z,33.70
2017-11-13T19:41:49.948Z,33.90
2017-11-13T19:44:18.809Z,32.70
2017-11-13T19:46:47.670Z,33.40
2017-11-13T19:49:16.550Z,34.20
2017-11-13T19:51:45.940Z,34.20
2017-11-13T19:54:15.149Z,33.70
2017-11-13T19:56:44.371Z,34.40
2017-11-13T19:59:13.946Z,32.90
2017-11-13T20:01:43.064Z,32.90
2017-11-13T20:04:12.339Z,33.50
2017-11-13T20:06:41.545Z,33.20
2017-11-13T20:09:10.898Z,33.90
2017-11-13T20:11:39.951Z,33.80
2017-11-13T20:14:10.052Z,33.90
2017-11-13T20:16:38.870Z,33.80
2017-11-13T20:19:07.949Z,33.70
2017-11-13T20:21:36.772Z,33.30
2017-11-13T20:24:06.615Z,33.20
2017-11-13T20:26:36.331Z,33.00
2017-11-13T20:29:05.278Z,32.80
2017-11-13T20:31:34.535Z,32.90
2017-11-13T20:34:03.741Z,34.80
2017-11-13T20:36:32.569Z,34.70
2017-11-13T20:39:01.470Z,35.30
2017-11-13T20:41:30.595Z,34.00
2017-11-13T20:44:00.369Z,33.60
2017-11-13T20:46:29.310Z,33.60
2017-11-13T20:48:59.608Z,35.00
2017-11-13T20:51:29.193Z,36.30
2017-11-13T20:53:58.485Z,36.10
2017-11-13T20:56:28.191Z,35.00
2017-11-13T20:58:57.096Z,34.90
2017-11-13T21:01:26.074Z,34.50
2017-11-13T21:03:55.924Z,34.30
2017-11-13T21:06:26.620Z,33.70
2017-11-13T21:08:55.995Z,33.70
2017-11-13T21:11:24.905Z,34.10
2017-11-13T21:13:54.286Z,32.90
2017-11-13T21:16:23.084Z,34.40
2017-11-13T21:18:52.145Z,34.20
2017-11-13T21:21:21.327Z,34.60
2017-11-13T21:23:50.836Z,34.40
2017-11-13T21:26:20.095Z,34.30
2017-11-13T21:28:50.233Z,34.50
2017-11-13T21:31:19.680Z,34.80
2017-11-13T21:33:49.386Z,33.90
2017-11-13T21:36:18.747Z,34.40
2017-11-13T21:38:47.522Z,34.50
2017-11-13T21:41:17.134Z,33.40
2017-11-13T21:43:46.160Z,33.40
2017-11-13T21:46:15.176Z,33.70
2017-11-13T21:48:44.457Z,33.30
2017-11-13T21:51:14.233Z,34.80
2017-11-13T21:53:43.884Z,34.60
2017-11-13T21:56:14.000Z,34.70
2017-11-13T21:58:42.826Z,34.70
2017-11-13T22:01:12.223Z,34.90
2017-11-13T22:03:41.155Z,34.00
2017-11-13T22:06:11.022Z,34.90
2017-11-13T22:08:39.867Z,34.80
2017-11-13T22:11:08.855Z,34.90
2017-11-13T22:13:39.099Z,35.90
2017-11-13T22:16:09.886Z,34.30
2017-11-13T22:18:39.711Z,34.30
2017-11-13T22:21:08.799Z,33.50
2017-11-13T22:23:37.568Z,34.30
2017-11-13T22:26:07.226Z,34.70
2017-11-13T22:28:37.117Z,34.70
2017-11-13T22:31:06.228Z,34.70
2017-11-13T22:33:35.347Z,34.20
2017-11-13T22:36:04.829Z,34.90
2017-11-13T22:38:33.777Z,34.50
2017-11-13T22:41:02.673Z,34.70
2017-11-13T22:43:32.039Z,33.70
2017-11-13T22:46:00.941Z,34.30
2017-11-13T22:48:30.643Z,35.00
2017-11-13T22:50:59.829Z,33.70
2017-11-13T22:53:31.488Z,34.30
2017-11-13T22:56:01.365Z,34.80
2017-11-13T22:58:30.802Z,34.40
2017-11-13T23:01:00.284Z,34.70
2017-11-13T23:03:29.768Z,34.70
2017-11-13T23:06:00.018Z,36.10
2017-11-13T23:08:29.155Z,35.50
2017-11-13T23:10:58.464Z,35.20
2017-11-13T23:13:28.287Z,36.50
2017-11-13T23:15:57.928Z,36.50
2017-11-13T23:18:26.905Z,34.90
2017-11-13T23:20:57.526Z,34.80
2017-11-13T23:23:28.996Z,34.70
2017-11-13T23:25:58.093Z,34.90
2017-11-13T23:28:27.192Z,34.40
2017-11-13T23:30:57.241Z,34.00
2017-11-13T23:33:27.968Z,34.40
2017-11-13T23:35:57.577Z,34.40
2017-11-13T23:38:27.341Z,35.30
2017-11-13T23:40:57.265Z,35.40
2017-11-13T23:43:27.242Z,34.60
2017-11-13T23:45:56.992Z,33.90
2017-11-13T23:48:25.778Z,35.70
2017-11-13T23:50:54.543Z,34.20
2017-11-13T23:53:23.537Z,34.90
2017-11-13T23:55:52.717Z,34.90
2017-11-13T23:58:22.234Z,35.00
